Amelia, Virginia
Current Conditions -  °F | °C
As of 7:35 PM on Friday 31 Oct 2014 (Local Time) from KW81 Reporting Station
Broken Clouds Broken Clouds  
Wind Chill: 48°   Ceiling: 6000
Heat Index: 48°   Visibility: 10mi
Dew Point: 42°   Wind: 0mph
Humidity: 81%   Direction: NA
Pressure: 29.83"   Gusts: NA
Location:  37.3498°N, 77.9661°W
Report Text: KW81 312335Z AUTO 00000KT 10SM BKN060 09/06 A2983 RMK AO1 T00870056
Loading
Personal Weather Stations






























Interactive Weather Map
Tropical Storm Tracking
New forecast layout! Learn more

10-Day Weather Forecast

Advertisements
Track Severe Weather on mobile